Time;durP1;ratioP1;P1;durP2;ratioP2;P2;SDS_P1;SDS_P2;PMS_P1;PMS_P2;Temp;Humidity;BMP_temperature;BMP_pressure;BME280_temperature;BME280_humidity;BME280_pressure;Samples;Min_cycle;Max_cycle;Signal;HPM_P1;HPM_P2
2023/02/21 02:14:42;;;;;;;8.37;3.80;;;;;;;6.96;76.84;99245.19;5121338;27;40637;-81
2023/02/21 02:17:24;;;;;;;9.33;4.10;;;;;;;7.07;77.04;99240.34;5135815;27;43712;-81
2023/02/21 02:20:44;;;;;;;7.60;4.17;;;;;;;7.28;77.06;99254.38;5121300;27;41201;-79
2023/02/21 02:23:54;;;;;;;6.80;3.77;;;;;;;7.36;77.15;99247.00;5121345;27;39166;-81
2023/02/21 02:26:59;;;;;;;6.37;3.67;;;;;;;7.34;76.50;99238.31;5121461;27;40234;-80
2023/02/21 02:29:59;;;;;;;6.23;2.90;;;;;;;7.51;76.51;99261.28;5138307;27;42798;-81
2023/02/21 02:32:41;;;;;;;4.90;3.20;;;;;;;7.40;75.96;99224.03;5153900;27;43073;-80
2023/02/21 02:35:15;;;;;;;4.80;3.70;;;;;;;7.67;75.89;99256.19;5121144;27;38503;-80
2023/02/21 02:37:52;;;;;;;4.23;3.20;;;;;;;7.73;75.45;99253.28;5121366;27;40473;-81
2023/02/21 02:40:27;;;;;;;7.60;3.17;;;;;;;7.70;75.09;99246.38;5121122;27;43124;-81
2023/02/21 02:43:06;;;;;;;5.20;3.00;;;;;;;7.85;75.05;99256.25;5121428;27;42135;-81
2023/02/21 02:45:41;;;;;;;5.73;3.10;;;;;;;7.95;74.50;99254.03;5154959;27;40973;-81
2023/02/21 02:48:14;;;;;;;6.30;3.07;;;;;;;8.01;74.40;99251.13;5135490;27;41676;-81
2023/02/21 02:50:47;;;;;;;4.93;3.30;;;;;;;8.06;74.17;99249.13;5138066;27;42786;-81
2023/02/21 02:53:17;;;;;;;5.13;3.10;;;;;;;8.08;74.16;99249.91;5138772;27;42809;-81
2023/02/21 02:55:51;;;;;;;4.27;2.67;;;;;;;7.79;73.69;99192.41;5120617;27;38816;-79
2023/02/21 02:58:22;;;;;;;4.97;2.57;;;;;;;8.17;73.59;99245.97;5135296;27;41764;-80
2023/02/21 03:01:03;;;;;;;3.13;2.40;;;;;;;8.16;73.44;99237.22;5155703;27;42731;-80
2023/02/21 03:03:52;;;;;;;5.13;2.63;;;;;;;8.25;73.21;99242.06;5153581;27;42259;-79
2023/02/21 03:06:30;;;;;;;8.00;3.10;;;;;;;8.34;73.36;99248.72;5135263;27;40082;-80
2023/02/21 03:09:07;;;;;;;5.30;2.83;;;;;;;8.22;73.05;99218.47;5152664;27;41778;-80
2023/02/21 03:11:42;;;;;;;4.53;2.70;;;;;;;8.44;72.77;99247.34;5135085;27;42441;-81
2023/02/21 03:14:16;;;;;;;4.30;2.63;;;;;;;8.38;72.48;99233.63;5120658;27;41332;-81
2023/02/21 03:16:48;;;;;;;5.20;2.87;;;;;;;8.50;72.69;99254.16;5159993;27;39950;-80
2023/02/21 03:19:20;;;;;;;4.97;2.87;;;;;;;8.47;72.64;99244.59;5153129;27;40685;-80
2023/02/21 03:21:52;;;;;;;2.90;2.43;;;;;;;8.47;72.54;99238.44;5149799;27;43384;-80
2023/02/21 03:24:23;;;;;;;4.07;2.30;;;;;;;8.60;72.57;99252.78;5135856;27;41156;-80
2023/02/21 03:26:57;;;;;;;5.83;3.37;;;;;;;8.60;72.36;99250.13;5149280;27;41355;-81
2023/02/21 03:29:52;;;;;;;5.13;3.30;;;;;;;8.37;73.20;99224.84;5136206;27;42419;-80
2023/02/21 03:34:53;;;;;;;4.40;3.30;;;;;;;8.27;73.95;99250.78;5120444;27;40890;-80
2023/02/21 03:37:31;;;;;;;7.43;3.90;;;;;;;8.16;74.53;99258.31;5137557;27;39900;-80
2023/02/21 03:39:59;;;;;;;6.23;4.03;;;;;;;7.96;74.29;99242.56;5120431;27;41558;-80
2023/02/21 03:42:27;;;;;;;6.10;3.97;;;;;;;8.01;74.04;99261.69;5120211;27;42834;-79
2023/02/21 03:44:55;;;;;;;8.53;4.20;;;;;;;8.00;74.49;99256.47;5120001;27;41096;-81
2023/02/21 03:47:24;;;;;;;6.27;4.23;;;;;;;7.96;74.63;99261.03;5137265;27;38942;-80
2023/02/21 03:49:52;;;;;;;7.93;4.10;;;;;;;7.72;74.63;99227.84;5119572;27;42339;-81
2023/02/21 03:52:21;;;;;;;7.67;4.43;;;;;;;8.00;74.34;99264.38;5136826;27;42556;-81
2023/02/21 03:54:50;;;;;;;6.90;4.03;;;;;;;8.02;73.98;99267.81;5119386;27;42383;-80
2023/02/21 03:57:21;;;;;;;5.40;3.83;;;;;;;8.04;74.76;99264.16;5137518;27;39099;-81
2023/02/21 03:59:51;;;;;;;9.40;3.90;;;;;;;8.04;74.14;99271.22;5136988;27;40612;-80
2023/02/21 04:02:19;;;;;;;6.83;4.33;;;;;;;7.95;75.44;99267.22;5154854;27;42681;-80
2023/02/21 04:04:47;;;;;;;6.93;3.23;;;;;;;7.83;74.93;99262.50;5119762;27;41363;-80
2023/02/21 04:07:19;;;;;;;3.70;2.97;;;;;;;7.71;74.91;99265.69;5134000;27;40169;-81
2023/02/21 04:09:48;;;;;;;6.13;3.80;;;;;;;7.60;75.01;99266.16;5153798;27;41604;-81
2023/02/21 04:12:23;;;;;;;4.13;3.23;;;;;;;7.46;75.02;99266.75;5119267;27;41618;-81
2023/02/21 04:14:52;;;;;;;7.23;3.40;;;;;;;7.35;74.87;99269.00;5119239;27;41484;-81
2023/02/21 04:17:19;;;;;;;6.13;3.70;;;;;;;7.25;75.26;99270.31;5136543;27;40313;-81
2023/02/21 04:19:48;;;;;;;9.63;4.80;;;;;;;7.07;75.62;99245.59;5136607;27;40582;-80
2023/02/21 04:22:16;;;;;;;7.23;4.50;;;;;;;7.12;76.12;99266.47;5119605;27;41857;-79
2023/02/21 04:24:44;;;;;;;6.77;4.73;;;;;;;6.95;75.82;99253.16;5118924;27;41256;-80
2023/02/21 04:27:13;;;;;;;5.23;3.87;;;;;;;6.96;75.85;99263.63;5136659;27;39127;-80
2023/02/21 04:29:47;;;;;;;6.80;4.70;;;;;;;6.90;76.43;99258.63;5136215;27;40689;-80
2023/02/21 04:32:15;;;;;;;6.97;4.30;;;;;;;6.83;76.34;99263.28;5136216;27;41787;-81
2023/02/21 04:34:43;;;;;;;6.47;3.90;;;;;;;6.78;77.44;99245.97;5119036;27;40905;-80
2023/02/21 04:37:11;;;;;;;7.13;4.17;;;;;;;6.75;78.99;99241.69;5136676;27;39151;-81
2023/02/21 04:39:38;;;;;;;7.50;3.90;;;;;;;6.70;79.12;99238.38;5136191;27;43054;-80
2023/02/21 04:42:06;;;;;;;6.87;4.17;;;;;;;6.64;81.26;99235.16;5119226;27;42646;-80
2023/02/21 04:44:34;;;;;;;8.70;4.37;;;;;;;6.53;80.93;99219.78;5119103;27;40875;-80
2023/02/21 04:47:03;;;;;;;6.67;4.07;;;;;;;6.58;80.36;99236.22;5153808;27;40866;-81
2023/02/21 04:49:32;;;;;;;4.80;3.60;;;;;;;6.53;79.77;99238.22;5154472;27;41782;-81
2023/02/21 04:52:00;;;;;;;7.53;3.77;;;;;;;6.45;79.74;99235.00;5154638;27;42760;-80
2023/02/21 04:54:27;;;;;;;5.53;3.83;;;;;;;6.46;79.96;99234.09;5136245;27;43014;-81
2023/02/21 04:56:55;;;;;;;6.60;3.30;;;;;;;6.43;80.71;99235.06;5136178;27;38828;-80
2023/02/21 04:59:23;;;;;;;6.07;3.70;;;;;;;6.35;80.91;99221.38;5136165;27;40849;-81
2023/02/21 05:01:51;;;;;;;10.07;4.50;;;;;;;6.41;80.73;99223.78;5135940;27;43679;-81
2023/02/21 05:04:20;;;;;;;5.50;3.60;;;;;;;6.49;80.30;99232.19;5155547;27;42292;-80
2023/02/21 05:06:48;;;;;;;6.73;3.90;;;;;;;6.55;79.96;99225.84;5139694;27;38998;-80
2023/02/21 05:09:15;;;;;;;7.33;3.73;;;;;;;6.61;79.81;99230.00;5139537;27;41730;-81
2023/02/21 05:11:43;;;;;;;8.40;4.03;;;;;;;6.69;79.68;99234.03;5139514;27;42729;-81
2023/02/21 05:14:11;;;;;;;5.87;3.87;;;;;;;6.61;79.19;99207.16;5154537;27;42047;-80
2023/02/21 05:16:39;;;;;;;4.33;3.30;;;;;;;6.76;79.13;99214.44;5156901;27;40950;-80
2023/02/21 05:19:06;;;;;;;6.40;3.80;;;;;;;6.86;78.81;99214.91;5158138;27;41546;-80
2023/02/21 05:21:37;;;;;;;5.17;3.80;;;;;;;6.91;78.44;99209.47;5139563;27;41395;-80
2023/02/21 05:24:06;;;;;;;6.80;3.60;;;;;;;6.95;78.21;99205.75;5121975;27;40955;-80
2023/02/21 05:26:36;;;;;;;7.73;3.83;;;;;;;6.78;78.09;99173.13;5139577;27;40056;-80
2023/02/21 05:29:05;;;;;;;7.87;3.80;;;;;;;7.05;77.86;99214.97;5139265;27;41966;-79
2023/02/21 05:31:32;;;;;;;4.20;3.17;;;;;;;7.12;78.09;99205.91;5158120;27;42777;-80
2023/02/21 05:34:00;;;;;;;5.33;3.87;;;;;;;7.17;78.03;99201.31;5139417;27;42168;-81
2023/02/21 05:36:28;;;;;;;5.27;3.93;;;;;;;7.19;77.84;99200.31;5157840;27;40093;-80
2023/02/21 05:38:57;;;;;;;9.53;3.70;;;;;;;7.23;77.94;99198.41;5139405;27;42016;-80
2023/02/21 05:41:25;;;;;;;5.63;3.60;;;;;;;7.26;77.84;99207.97;5138821;27;41827;-81
2023/02/21 05:43:53;;;;;;;5.57;3.87;;;;;;;7.20;78.05;99177.44;5139116;27;42563;-81
2023/02/21 05:46:24;;;;;;;6.10;4.27;;;;;;;7.36;78.16;99206.63;5157604;27;39712;-81
2023/02/21 05:48:51;;;;;;;5.93;3.83;;;;;;;7.38;77.72;99200.38;5121646;27;40321;-80
2023/02/21 05:51:20;;;;;;;6.77;3.73;;;;;;;7.41;77.94;99197.59;5157375;27;42476;-81
2023/02/21 05:53:48;;;;;;;9.57;4.80;;;;;;;7.24;78.25;99157.97;5138801;27;41625;-81
2023/02/21 05:56:19;;;;;;;6.73;4.50;;;;;;;7.44;78.16;99196.59;5138665;27;38691;-81
2023/02/21 05:58:48;;;;;;;7.37;4.37;;;;;;;7.39;78.30;99194.19;5157524;27;41634;-80
2023/02/21 06:01:15;;;;;;;7.43;4.43;;;;;;;7.26;78.33;99177.19;5121527;27;43132;-80
2023/02/21 06:03:43;;;;;;;7.13;4.70;;;;;;;7.31;78.41;99195.41;5157225;27;42330;-81
2023/02/21 06:06:11;;;;;;;7.20;4.00;;;;;;;7.18;78.64;99190.69;5138837;27;38690;-81
2023/02/21 06:08:43;;;;;;;7.50;4.57;;;;;;;7.03;78.56;99170.31;5121698;27;41061;-80
2023/02/21 06:11:11;;;;;;;6.40;4.53;;;;;;;7.03;79.21;99182.63;5121567;27;42040;-80
2023/02/21 06:13:41;;;;;;;8.77;4.97;;;;;;;6.99;80.03;99188.91;5138099;27;42211;-80
2023/02/21 06:16:09;;;;;;;7.20;4.90;;;;;;;6.91;79.60;99191.91;5138035;27;40877;-80
2023/02/21 06:18:36;;;;;;;13.73;5.50;;;;;;;6.71;80.81;99158.50;5138445;27;40603;-80
2023/02/21 06:21:04;;;;;;;9.00;5.07;;;;;;;6.74;81.62;99187.31;5121214;27;42985;-80
2023/02/21 06:23:32;;;;;;;9.17;5.17;;;;;;;6.66;81.71;99186.78;5157200;27;42337;-81
2023/02/21 06:25:59;;;;;;;9.60;5.23;;;;;;;6.63;82.26;99186.06;5121057;27;40630;-80
2023/02/21 06:28:28;;;;;;;11.83;5.50;;;;;;;6.46;81.75;99173.59;5138281;27;40868;-80
2023/02/21 06:30:58;;;;;;;7.53;5.27;;;;;;;6.46;81.98;99176.22;5138215;27;41654;-81
2023/02/21 06:33:25;;;;;;;10.00;4.93;;;;;;;6.53;81.39;99200.50;5138499;27;42216;-80
2023/02/21 06:35:53;;;;;;;7.70;5.03;;;;;;;6.45;82.23;99193.78;5138002;27;39893;-80
2023/02/21 06:38:21;;;;;;;8.20;5.77;;;;;;;6.46;82.09;99194.63;5155796;27;41466;-80
2023/02/21 06:40:49;;;;;;;11.10;6.43;;;;;;;6.46;82.20;99187.59;5155365;27;43668;-80
2023/02/21 06:43:16;;;;;;;8.07;5.53;;;;;;;6.47;82.06;99191.09;5121156;27;41155;-80
2023/02/21 06:45:44;;;;;;;7.73;5.73;;;;;;;6.43;82.76;99179.81;5156530;27;40774;-81
2023/02/21 06:48:16;;;;;;;10.83;6.13;;;;;;;6.51;82.96;99203.22;5155465;27;41786;-80
2023/02/21 06:50:44;;;;;;;7.93;5.47;;;;;;;6.53;82.47;99206.63;5120695;27;41379;-80
2023/02/21 06:53:12;;;;;;;8.93;5.60;;;;;;;6.52;82.87;99207.56;5138443;27;42153;-80
2023/02/21 06:55:40;;;;;;;10.63;6.30;;;;;;;6.54;82.66;99213.63;5155070;27;39958;-80
2023/02/21 06:58:08;;;;;;;11.67;5.87;;;;;;;6.57;82.10;99212.59;5137739;27;42622;-81
2023/02/21 07:00:36;;;;;;;8.10;5.23;;;;;;;6.59;81.76;99216.91;5156352;27;42619;-80
2023/02/21 07:03:04;;;;;;;7.97;5.90;;;;;;;6.59;81.57;99216.91;5138051;27;41199;-79
2023/02/21 07:05:35;;;;;;;5.93;4.77;;;;;;;6.65;81.24;99221.94;5137758;27;40416;-81
2023/02/21 07:08:03;;;;;;;10.70;5.90;;;;;;;6.34;82.40;99168.81;5152202;27;41629;-80
2023/02/21 07:10:31;;;;;;;9.67;6.10;;;;;;;6.57;82.01;99202.09;5137469;27;41724;-80
2023/02/21 07:12:59;;;;;;;11.07;5.83;;;;;;;6.73;82.50;99225.09;5137429;27;41133;-80
2023/02/21 07:15:27;;;;;;;12.93;5.70;;;;;;;6.78;81.99;99232.81;5137606;27;39155;-80
2023/02/21 07:17:55;;;;;;;7.23;4.53;;;;;;;6.75;81.90;99228.53;5156134;27;41650;-81
2023/02/21 07:20:23;;;;;;;9.77;5.57;;;;;;;6.78;82.77;99217.00;5137787;27;42830;-81
2023/02/21 07:22:52;;;;;;;9.40;4.90;;;;;;;6.86;82.98;99225.44;5137636;27;41180;-80
2023/02/21 07:25:22;;;;;;;11.67;6.20;;;;;;;6.92;82.86;99221.72;5119885;27;38851;-80
2023/02/21 07:27:51;;;;;;;10.00;5.83;;;;;;;7.05;83.24;99228.13;5136129;27;41998;-80
2023/02/21 07:30:19;;;;;;;10.03;5.90;;;;;;;7.09;83.52;99216.56;5137521;27;42710;-80
2023/02/21 07:32:47;;;;;;;8.83;5.93;;;;;;;7.45;82.88;99235.19;5155844;27;42075;-81
2023/02/21 07:35:14;;;;;;;9.63;6.07;;;;;;;7.68;82.45;99236.81;5137244;27;39899;-79
2023/02/21 07:37:42;;;;;;;8.33;6.33;;;;;;;7.76;82.37;99234.72;5137162;27;41505;-80
2023/02/21 07:40:12;;;;;;;11.33;5.70;;;;;;;8.09;81.08;99230.53;5119353;27;41597;-80
2023/02/21 07:42:43;;;;;;;8.93;6.33;;;;;;;9.08;78.39;99231.00;5137095;27;42361;-80
2023/02/21 07:45:12;;;;;;;7.07;5.70;;;;;;;9.42;76.65;99246.00;5136412;27;39914;-80
2023/02/21 07:47:39;;;;;;;8.03;5.93;;;;;;;9.30;76.27;99243.97;5137273;27;41688;-81
2023/02/21 07:50:08;;;;;;;7.57;5.93;;;;;;;9.60;75.43;99237.13;5119612;27;41420;-80
2023/02/21 07:52:35;;;;;;;8.73;5.33;;;;;;;10.09;73.69;99263.59;5155796;27;42230;-81
2023/02/21 07:55:03;;;;;;;7.77;5.93;;;;;;;9.89;73.61;99245.31;5119764;27;40394;-81
2023/02/21 07:57:33;;;;;;;8.23;5.10;;;;;;;9.92;73.23;99266.28;5137082;27;42083;-80
2023/02/21 08:00:01;;;;;;;8.07;6.00;;;;;;;10.03;73.69;99253.34;5136835;27;41898;-81
2023/02/21 08:02:29;;;;;;;8.83;5.83;;;;;;;10.38;72.17;99273.50;5137192;27;41167;-80
2023/02/21 08:04:56;;;;;;;8.77;6.50;;;;;;;10.73;71.35;99254.78;5136685;27;39378;-81
2023/02/21 08:07:24;;;;;;;9.57;6.20;;;;;;;11.22;69.77;99283.75;5155658;27;41614;-80
2023/02/21 08:09:51;;;;;;;9.10;6.10;;;;;;;11.41;68.37;99289.69;5153869;27;43827;-81
2023/02/21 08:12:19;;;;;;;9.27;5.80;;;;;;;11.55;67.73;99284.41;5136326;27;43857;-82
2023/02/21 08:14:49;;;;;;;8.40;5.67;;;;;;;11.84;67.44;99291.53;5154303;27;39924;-81
2023/02/21 08:17:17;;;;;;;8.13;5.90;;;;;;;11.91;67.23;99272.56;5153716;27;41626;-81
2023/02/21 08:19:44;;;;;;;7.90;5.50;;;;;;;12.27;66.73;99311.91;5136746;27;42694;-81
2023/02/21 08:22:12;;;;;;;10.30;5.53;;;;;;;12.41;66.00;99307.44;5155010;27;42277;-81
2023/02/21 08:24:40;;;;;;;7.63;6.03;;;;;;;12.56;65.64;99311.81;5153761;27;40050;-81
2023/02/21 08:27:07;;;;;;;8.53;5.47;;;;;;;12.64;64.70;99310.44;5154552;27;41929;-81
2023/02/21 08:29:35;;;;;;;9.83;6.33;;;;;;;12.72;62.91;99322.31;5118699;27;42557;-81
2023/02/21 08:32:04;;;;;;;9.80;6.00;;;;;;;12.82;62.81;99317.25;5136504;27;43194;-81
2023/02/21 08:34:32;;;;;;;9.17;6.10;;;;;;;13.01;62.18;99320.41;5119270;27;41498;-81
2023/02/21 08:37:00;;;;;;;10.87;5.90;;;;;;;13.11;61.30;99310.88;5118992;27;40649;-81
2023/02/21 08:39:30;;;;;;;10.43;6.40;;;;;;;13.30;61.24;99305.25;5118435;27;41731;-80
2023/02/21 08:41:58;;;;;;;8.83;5.97;;;;;;;13.50;60.11;99303.91;5135921;27;43756;-80
2023/02/21 08:44:26;;;;;;;12.23;6.90;;;;;;;13.69;59.81;99311.53;5136161;27;40236;-81
2023/02/21 08:46:54;;;;;;;7.97;5.57;;;;;;;13.92;59.68;99332.94;5118788;27;40849;-81
2023/02/21 08:49:24;;;;;;;8.00;5.63;;;;;;;14.10;59.74;99337.94;5137341;27;20226;-81
2023/02/21 08:51:53;;;;;;;9.23;5.90;;;;;;;14.33;59.22;99329.22;5136024;27;42084;-81
2023/02/21 08:54:21;;;;;;;9.10;6.00;;;;;;;14.47;58.77;99329.13;5135457;27;38407;-81
2023/02/21 08:56:49;;;;;;;8.20;5.77;;;;;;;14.54;56.98;99342.88;5135287;27;42505;-80
2023/02/21 08:59:17;;;;;;;6.77;5.63;;;;;;;14.54;57.03;99341.06;5135659;27;41599;-81
2023/02/21 09:01:45;;;;;;;8.50;5.80;;;;;;;14.59;56.52;99333.56;5153678;27;42979;-82
2023/02/21 09:04:13;;;;;;;7.43;5.97;;;;;;;14.80;55.99;99338.34;5136022;27;40944;-81
2023/02/21 09:06:42;;;;;;;8.33;6.47;;;;;;;15.05;55.42;99335.59;5135885;27;40931;-81
2023/02/21 09:09:09;;;;;;;7.90;5.57;;;;;;;15.42;55.13;99347.94;5135581;27;42987;-82
2023/02/21 09:11:37;;;;;;;10.30;6.63;;;;;;;15.54;54.25;99353.31;5152927;27;42895;-81
2023/02/21 09:14:05;;;;;;;8.90;6.37;;;;;;;15.57;53.78;99329.09;5153727;27;39770;-81
2023/02/21 09:16:33;;;;;;;9.57;5.70;;;;;;;16.14;52.65;99311.28;5118105;27;41382;-81
2023/02/21 09:19:01;;;;;;;7.63;5.30;;;;;;;17.62;50.45;99334.03;5153676;27;42453;-82
2023/02/21 09:21:29;;;;;;;7.80;5.50;;;;;;;19.54;46.65;99381.59;5118511;27;41591;-82
2023/02/21 09:24:01;;;;;;;8.80;5.53;;;;;;;20.95;44.77;99356.59;5135385;27;39155;-82
2023/02/21 09:26:31;;;;;;;8.63;6.50;;;;;;;20.69;43.39;99383.34;5118350;27;42021;-82
2023/02/21 09:28:59;;;;;;;9.57;5.83;;;;;;;20.16;43.65;99365.03;5118048;27;43050;-81
2023/02/21 09:31:26;;;;;;;7.43;5.67;;;;;;;19.90;43.80;99348.69;5135476;27;42277;-80
2023/02/21 09:33:54;;;;;;;6.93;5.37;;;;;;;19.83;44.01;99360.97;5118082;27;41783;-80
2023/02/21 09:36:22;;;;;;;7.67;5.83;;;;;;;19.90;43.23;99369.34;5135411;27;42257;-81
2023/02/21 09:38:50;;;;;;;7.43;5.63;;;;;;;19.64;44.22;99367.22;5153384;27;44020;-81
2023/02/21 09:41:20;;;;;;;7.60;5.73;;;;;;;19.58;45.19;99369.59;5135477;27;41372;-81
2023/02/21 09:43:51;;;;;;;7.30;5.60;;;;;;;19.56;44.53;99367.06;5135410;27;42459;-81
2023/02/21 09:46:26;;;;;;;6.00;5.33;;;;;;;19.55;44.77;99354.59;5117908;27;41409;-81
2023/02/21 09:48:54;;;;;;;9.57;5.90;;;;;;;19.64;43.67;99369.91;5117698;27;44682;-81
2023/02/21 09:51:23;;;;;;;8.47;5.20;;;;;;;19.66;44.17;99367.03;5119168;27;41469;-81
2023/02/21 09:53:54;;;;;;;7.43;5.87;;;;;;;19.79;44.27;99359.56;5121437;27;40359;-81
2023/02/21 09:56:29;;;;;;;7.10;5.40;;;;;;;19.93;43.23;99342.16;5138510;27;40929;-81
2023/02/21 09:58:58;;;;;;;7.03;5.47;;;;;;;20.16;43.21;99351.59;5121341;27;42892;-81
2023/02/21 10:01:42;;;;;;;7.43;4.90;;;;;;;20.67;42.52;99342.28;5157341;27;42276;-81
2023/02/21 10:04:18;;;;;;;7.60;5.60;;;;;;;21.23;41.42;99360.16;5138809;27;39244;-82
2023/02/21 10:06:51;;;;;;;6.43;5.33;;;;;;;21.80;39.91;99348.97;5138645;27;42117;-82
2023/02/21 10:09:27;;;;;;;6.47;4.90;;;;;;;22.79;39.07;99363.03;5120909;27;44134;-82
2023/02/21 10:12:16;;;;;;;6.33;4.87;;;;;;;23.57;37.11;99384.47;5138231;27;42314;-82
2023/02/21 10:14:59;;;;;;;6.53;4.70;;;;;;;23.78;36.90;99368.59;5138287;27;39037;-81
2023/02/21 10:17:35;;;;;;;7.77;4.77;;;;;;;23.85;36.34;99379.63;5138647;27;43228;-81
2023/02/21 10:20:11;;;;;;;6.53;4.73;;;;;;;24.41;35.82;99373.34;5138410;27;42758;-82
2023/02/21 10:22:42;;;;;;;8.33;5.20;;;;;;;25.09;35.35;99383.72;5141075;27;40884;-81
2023/02/21 10:25:21;;;;;;;8.73;4.90;;;;;;;25.27;34.25;99391.59;5155005;27;39776;-81
2023/02/21 10:27:53;;;;;;;7.90;4.90;;;;;;;25.31;34.63;99388.34;5154303;27;40793;-82
2023/02/21 10:30:29;;;;;;;6.43;5.20;;;;;;;25.21;34.36;99392.31;5155605;27;41994;-81
2023/02/21 10:32:57;;;;;;;6.13;4.07;;;;;;;24.88;34.97;99337.34;5156627;27;43686;-83
2023/02/21 10:35:27;;;;;;;5.73;4.10;;;;;;;24.99;34.25;99383.06;5126121;27;39132;-82
2023/02/21 10:37:58;;;;;;;6.23;4.37;;;;;;;24.63;34.78;99360.94;5137903;27;43434;-81
2023/02/21 10:40:32;;;;;;;6.40;4.80;;;;;;;24.29;35.58;99343.09;5137333;27;44006;-82
2023/02/21 10:43:09;;;;;;;7.27;4.40;;;;;;;24.39;35.54;99367.25;5155402;27;41306;-82
2023/02/21 10:45:42;;;;;;;6.00;4.73;;;;;;;24.29;35.04;99363.91;5137256;27;40049;-82
2023/02/21 10:48:12;;;;;;;5.20;4.37;;;;;;;23.99;35.58;99351.84;5137653;27;41753;-81
2023/02/21 10:50:44;;;;;;;5.97;4.23;;;;;;;24.03;35.97;99363.19;5120171;27;42836;-82
2023/02/21 10:53:25;;;;;;;4.77;3.70;;;;;;;23.97;36.05;99338.53;5137442;27;41126;-82
2023/02/21 10:56:20;;;;;;;5.77;3.77;;;;;;;23.93;36.63;99342.56;5120190;27;39844;-82
2023/02/21 10:58:52;;;;;;;5.13;4.17;;;;;;;23.53;36.28;99337.13;5137429;27;41742;-82
2023/02/21 11:01:24;;;;;;;4.17;3.47;;;;;;;23.17;37.15;99356.28;5120374;27;41810;-82
2023/02/21 11:03:53;;;;;;;3.63;3.30;;;;;;;22.78;38.24;99339.72;5136739;27;41421;-82
2023/02/21 11:06:31;;;;;;;6.07;3.50;;;;;;;22.54;38.80;99337.72;5137662;27;39949;-81
2023/02/21 11:09:00;;;;;;;6.13;4.27;;;;;;;22.34;39.08;99325.47;5119884;27;40952;-82
2023/02/21 11:11:33;;;;;;;5.40;4.00;;;;;;;22.17;40.09;99319.09;5137417;27;43875;-82
2023/02/21 11:14:22;;;;;;;4.00;2.90;;;;;;;21.82;40.57;99297.56;5119719;27;41279;-82
2023/02/21 11:17:14;;;;;;;4.40;2.90;;;;;;;21.61;41.36;99288.97;5152744;27;39918;-82
2023/02/21 11:19:45;;;;;;;3.43;2.50;;;;;;;21.48;41.95;99300.16;5154172;27;41893;-82
2023/02/21 11:22:14;;;;;;;4.00;2.73;;;;;;;21.22;42.72;99283.03;5120028;27;42551;-81
2023/02/21 11:24:47;;;;;;;2.77;2.37;;;;;;;21.11;42.83;99287.63;5153992;27;42979;-82
2023/02/21 11:27:15;;;;;;;3.70;2.27;;;;;;;20.93;43.69;99278.66;5120493;27;39148;-81
2023/02/21 11:29:49;;;;;;;2.87;2.50;;;;;;;20.81;43.67;99274.47;5136936;27;41992;-82
2023/02/21 11:32:25;;;;;;;4.13;2.40;;;;;;;20.63;44.21;99244.84;5120187;27;41652;-82
2023/02/21 11:35:22;;;;;;;4.30;2.30;;;;;;;20.78;43.92;99258.63;5119928;27;41981;-84
2023/02/21 11:37:52;;;;;;;3.50;2.07;;;;;;;21.03;44.13;99260.59;5137275;27;39130;-82
2023/02/21 11:40:31;;;;;;;2.20;2.00;;;;;;;20.98;43.94;99211.75;5154328;27;42773;-82
2023/02/21 11:43:20;;;;;;;2.87;2.20;;;;;;;21.47;43.71;99244.56;5137006;27;41538;-81
2023/02/21 11:46:01;;;;;;;2.80;2.30;;;;;;;21.74;43.28;99271.41;5154192;27;42985;-81
2023/02/21 11:48:33;;;;;;;2.00;1.80;;;;;;;21.73;43.11;99258.06;5133961;27;41199;-82
2023/02/21 11:51:08;;;;;;;3.20;1.77;;;;;;;21.50;43.44;99268.50;5137008;27;41806;-82
2023/02/21 11:53:42;;;;;;;1.93;1.63;;;;;;;21.14;43.62;99238.00;5152126;27;42636;-82
2023/02/21 11:56:19;;;;;;;1.80;1.50;;;;;;;21.05;44.02;99245.13;5136691;27;42961;-82
2023/02/21 11:58:58;;;;;;;2.47;1.60;;;;;;;21.20;44.35;99231.16;5120132;27;39958;-82
2023/02/21 12:01:37;;;;;;;1.33;1.13;;;;;;;21.40;44.80;99246.16;5133699;27;41730;-81
2023/02/21 12:04:19;;;;;;;2.50;1.70;;;;;;;21.36;44.11;99242.09;5136470;27;41507;-82
2023/02/21 12:06:54;;;;;;;3.00;1.67;;;;;;;21.22;44.43;99227.31;5136646;27;41918;-81
2023/02/21 12:09:30;;;;;;;2.73;1.70;;;;;;;21.29;44.12;99243.69;5136796;27;38727;-82
2023/02/21 12:12:14;;;;;;;1.50;1.37;;;;;;;21.49;44.40;99234.47;5119712;27;40692;-82
2023/02/21 12:14:55;;;;;;;1.53;1.30;;;;;;;21.62;43.67;99210.66;5118197;27;41682;-82
2023/02/21 12:17:47;;;;;;;2.10;1.53;;;;;;;21.64;43.83;99224.78;5133758;27;43169;-82
2023/02/21 12:20:26;;;;;;;2.10;1.70;;;;;;;21.43;43.95;99227.84;5106852;27;40755;-81
2023/02/21 12:23:09;;;;;;;2.03;1.43;;;;;;;21.34;44.44;99225.25;5136468;27;40685;-81
2023/02/21 12:25:49;;;;;;;2.10;1.20;;;;;;;21.31;44.51;99218.31;5154037;27;42589;-81
2023/02/21 12:28:25;;;;;;;1.20;1.00;;;;;;;21.88;44.65;99204.44;5133456;27;42352;-82
2023/02/21 12:31:09;;;;;;;1.80;1.40;;;;;;;24.10;41.66;99218.09;5119461;27;39082;-82
2023/02/21 12:33:48;;;;;;;1.57;1.30;;;;;;;26.39;36.99;99228.06;5133261;27;41987;-82
2023/02/21 12:36:32;;;;;;;1.60;0.97;;;;;;;28.37;34.90;99244.56;5136203;27;43451;-82
2023/02/21 12:39:13;;;;;;;1.20;1.10;;;;;;;28.02;34.63;99257.31;5118545;27;42581;-82
2023/02/21 12:41:55;;;;;;;1.57;1.20;;;;;;;28.20;33.91;99259.53;5118978;27;39139;-82
2023/02/21 12:44:27;;;;;;;1.20;1.10;;;;;;;29.25;33.24;99224.63;5119131;27;41371;-82
2023/02/21 12:46:58;;;;;;;1.03;0.97;;;;;;;29.80;31.91;99254.50;5118819;27;41779;-81
2023/02/21 12:49:36;;;;;;;1.30;1.00;;;;;;;29.47;31.07;99262.69;5118171;27;42199;-84
2023/02/21 12:52:14;;;;;;;1.83;1.00;;;;;;;29.13;32.21;99219.97;5118774;27;39172;-82
2023/02/21 12:54:47;;;;;;;1.10;1.00;;;;;;;28.63;32.84;99219.34;5118212;27;40671;-82
2023/02/21 12:57:19;;;;;;;1.67;1.10;;;;;;;27.98;33.38;99204.28;5134232;27;42828;-82
2023/02/21 13:00:06;;;;;;;1.17;1.07;;;;;;;28.82;32.95;99224.06;5118165;27;43406;-82
2023/02/21 13:02:43;;;;;;;1.43;1.10;;;;;;;30.02;31.57;99239.66;5135667;27;39114;-82
2023/02/21 13:05:32;;;;;;;0.93;0.90;;;;;;;29.77;30.68;99231.22;5118206;27;40939;-82
2023/02/21 13:08:14;;;;;;;3.00;1.17;;;;;;;28.58;31.67;99189.97;5117801;27;41534;-82
2023/02/21 13:10:52;;;;;;;1.73;1.17;;;;;;;27.72;33.15;99201.34;5135655;27;42115;-82
2023/02/21 13:13:25;;;;;;;1.40;1.30;;;;;;;26.98;33.75;99185.34;5118118;27;40270;-82
2023/02/21 13:15:56;;;;;;;2.33;1.23;;;;;;;27.12;34.36;99129.25;5118659;27;40518;-82
2023/02/21 13:18:28;;;;;;;2.23;1.40;;;;;;;29.06;32.36;99180.91;5118669;27;41759;-82
2023/02/21 13:21:05;;;;;;;2.53;1.50;;;;;;;30.60;30.00;99177.72;5118388;27;41891;-82
2023/02/21 13:24:11;;;;;;;2.03;1.17;;;;;;;31.22;29.59;99197.19;5117845;27;39404;-81
2023/02/21 13:27:22;;;;;;;1.47;1.33;;;;;;;32.92;28.23;99182.06;5121889;27;40799;-82
2023/02/21 13:29:51;;;;;;;1.80;1.30;;;;;;;33.64;26.27;99191.94;5138728;27;41703;-82
2023/02/21 13:32:21;;;;;;;1.20;1.10;;;;;;;32.94;25.93;99153.31;5138826;27;44119;-82
2023/02/21 13:34:54;;;;;;;1.40;1.30;;;;;;;31.94;27.29;99179.34;5121171;27;39648;-82
2023/02/21 13:37:27;;;;;;;1.30;1.20;;;;;;;30.54;29.08;99166.81;5121658;27;41884;-82
2023/02/21 13:40:00;;;;;;;1.93;1.13;;;;;;;29.62;29.98;99146.78;5138547;27;42801;-82
2023/02/21 13:42:30;;;;;;;1.53;1.33;;;;;;;29.55;30.50;99140.47;5138944;27;41354;-82
2023/02/21 13:45:18;;;;;;;1.97;1.20;;;;;;;29.21;30.62;99137.94;5121114;27;41459;-82
2023/02/21 13:48:21;;;;;;;1.30;1.20;;;;;;;28.83;30.48;99143.94;5121305;27;40777;-82
2023/02/21 13:50:51;;;;;;;2.70;1.30;;;;;;;29.07;30.91;99106.22;5121509;27;42721;-82
2023/02/21 13:53:22;;;;;;;1.70;1.60;;;;;;;30.11;29.96;99137.28;5138771;27;42971;-82
2023/02/21 13:56:25;;;;;;;1.40;1.30;;;;;;;30.35;29.58;99136.56;5120939;27;40026;-82
2023/02/21 13:58:53;;;;;;;1.73;1.50;;;;;;;31.12;29.14;99125.69;5114761;27;40807;-82
2023/02/21 14:01:39;;;;;;;1.80;1.33;;;;;;;31.76;28.35;99134.44;5138137;27;42283;-81
2023/02/21 14:05:01;;;;;;;4.30;1.37;;;;;;;32.14;27.93;99125.19;5120635;27;43684;-83
2023/02/21 14:08:01;;;;;;;1.90;1.30;;;;;;;32.36;27.37;99136.56;5059250;28;39210;-84
2023/02/21 14:10:45;;;;;;;1.50;1.40;;;;;;;32.31;27.25;99123.53;5137926;27;42002;-82
2023/02/21 14:13:23;;;;;;;2.63;2.03;;;;;;;32.39;26.70;99123.22;5120315;27;42108;-82
2023/02/21 14:15:58;;;;;;;2.00;1.70;;;;;;;32.31;26.69;99109.81;5137708;27;42413;-82
2023/02/21 14:18:30;;;;;;;2.77;1.90;;;;;;;32.30;26.64;99118.28;5121484;27;38996;-82
2023/02/21 14:21:00;;;;;;;3.23;2.20;;;;;;;32.26;26.56;99112.44;5137797;27;40510;-82